Terminal Aerodrome Forecast
Issued by NWS Cleveland, OH

Home | Current Version | Previous Version | Text Only | Print | Product List | Glossary Off
Versions: 1 2 3 4 5 6 7 8 9 10 11 12 13 14 15

000
FTUS41 KCLE 301736
TAFYNG
TAF
KYNG 301736Z 3018/0118 20008KT P6SM VCSH BKN020 OVC200
     FM302100 22010KT P6SM -SHRA VCTS SCT023 OVC050CB
      TEMPO 3021/0101 3SM TSRA OVC015CB
     FM010100 22006KT P6SM -RA VCTS SCT100CB OVC250
     FM010700 22006KT 4SM BR VCSH OVC007
     FM011500 25009KT 6SM BR OVC015=

USA.gov is the U.S. government's official web portal to all federal, state and local government web resources and services.